Snook, Texas
Current Conditions -  °F | °C
As of 10:53 PM on Wednesday 22 Oct 2014 (Local Time) from KCLL Reporting Station
Clear Clear  
Wind Chill: 69°   Ceiling: Unl
Heat Index: 69°   Visibility: 10mi
Dew Point: 57°   Wind: 5mph
Humidity: 65%   Direction: 70°ENE
Pressure: 30.1"   Gusts: NA
Location:  30.49°N, 96.46°W
Report Text: KCLL 230353Z 07004KT 10SM CLR 21/14 A3010 RMK AO2 SLP188 T02060139
Loading
Personal Weather Stations






























Interactive Weather Map New forecast layout! Learn more

10-Day Weather Forecast

Advertisements
Track Severe Weather on mobile